sensor_id;sensor_type;location;lat;lon;timestamp;temperature;humidity
54429;DHT22;40337;52.978;6.310;2022-07-12T00:01:08;15.00;99.90
54429;DHT22;40337;52.978;6.310;2022-07-12T00:03:34;15.00;99.90
54429;DHT22;40337;52.978;6.310;2022-07-12T00:06:00;14.90;99.90
54429;DHT22;40337;52.978;6.310;2022-07-12T00:08:27;14.90;99.90
54429;DHT22;40337;52.978;6.310;2022-07-12T00:10:52;14.90;99.90
54429;DHT22;40337;52.978;6.310;2022-07-12T00:13:19;14.90;99.90
54429;DHT22;40337;52.978;6.310;2022-07-12T00:15:44;14.90;99.90
54429;DHT22;40337;52.978;6.310;2022-07-12T00:18:10;14.90;99.90
54429;DHT22;40337;52.978;6.310;2022-07-12T00:20:36;14.90;99.90
54429;DHT22;40337;52.978;6.310;2022-07-12T00:23:03;14.90;99.90
54429;DHT22;40337;52.978;6.310;2022-07-12T00:25:29;14.80;99.90
54429;DHT22;40337;52.978;6.310;2022-07-12T00:27:55;14.70;99.90
54429;DHT22;40337;52.978;6.310;2022-07-12T00:30:21;14.70;99.90
54429;DHT22;40337;52.978;6.310;2022-07-12T00:32:48;14.60;99.90
54429;DHT22;40337;52.978;6.310;2022-07-12T00:35:14;14.60;99.90
54429;DHT22;40337;52.978;6.310;2022-07-12T00:37:40;14.50;99.90
54429;DHT22;40337;52.978;6.310;2022-07-12T00:40:08;14.50;99.90
54429;DHT22;40337;52.978;6.310;2022-07-12T00:42:35;14.40;99.90
54429;DHT22;40337;52.978;6.310;2022-07-12T00:45:03;14.30;99.90
54429;DHT22;40337;52.978;6.310;2022-07-12T00:47:40;14.20;99.90
54429;DHT22;40337;52.978;6.310;2022-07-12T00:50:21;14.10;99.90
54429;DHT22;40337;52.978;6.310;2022-07-12T00:52:49;14.10;99.90
54429;DHT22;40337;52.978;6.310;2022-07-12T00:55:16;14.00;99.90
54429;DHT22;40337;52.978;6.310;2022-07-12T00:57:43;13.90;99.90
54429;DHT22;40337;52.978;6.310;2022-07-12T01:00:11;13.90;99.90
54429;DHT22;40337;52.978;6.310;2022-07-12T01:02:37;13.90;99.90
54429;DHT22;40337;52.978;6.310;2022-07-12T01:05:05;14.00;99.90
54429;DHT22;40337;52.978;6.310;2022-07-12T01:07:31;14.10;99.90
54429;DHT22;40337;52.978;6.310;2022-07-12T01:09:58;14.10;99.90
54429;DHT22;40337;52.978;6.310;2022-07-12T01:12:25;14.00;99.90
54429;DHT22;40337;52.978;6.310;2022-07-12T01:14:51;13.90;99.90
54429;DHT22;40337;52.978;6.310;2022-07-12T01:17:21;13.90;99.90
54429;DHT22;40337;52.978;6.310;2022-07-12T01:19:51;14.00;99.90
54429;DHT22;40337;52.978;6.310;2022-07-12T01:22:18;14.00;99.90
54429;DHT22;40337;52.978;6.310;2022-07-12T01:24:45;13.90;99.90
54429;DHT22;40337;52.978;6.310;2022-07-12T01:27:12;13.70;99.90
54429;DHT22;40337;52.978;6.310;2022-07-12T01:29:38;13.70;99.90
54429;DHT22;40337;52.978;6.310;2022-07-12T01:32:05;13.60;99.90
54429;DHT22;40337;52.978;6.310;2022-07-12T01:34:50;13.60;99.90
54429;DHT22;40337;52.978;6.310;2022-07-12T01:37:17;13.40;99.90
54429;DHT22;40337;52.978;6.310;2022-07-12T01:39:49;13.40;99.90
54429;DHT22;40337;52.978;6.310;2022-07-12T01:42:15;13.40;99.90
54429;DHT22;40337;52.978;6.310;2022-07-12T01:44:41;13.40;99.90
54429;DHT22;40337;52.978;6.310;2022-07-12T01:47:06;13.40;99.90
54429;DHT22;40337;52.978;6.310;2022-07-12T01:49:32;13.40;99.90
54429;DHT22;40337;52.978;6.310;2022-07-12T01:51:58;13.40;99.90
54429;DHT22;40337;52.978;6.310;2022-07-12T01:54:25;13.40;99.90
54429;DHT22;40337;52.978;6.310;2022-07-12T01:56:52;13.30;99.90
54429;DHT22;40337;52.978;6.310;2022-07-12T01:59:21;13.30;99.90
54429;DHT22;40337;52.978;6.310;2022-07-12T02:01:47;13.20;99.90
54429;DHT22;40337;52.978;6.310;2022-07-12T02:04:18;13.20;99.90
54429;DHT22;40337;52.978;6.310;2022-07-12T02:06:48;13.20;99.90
54429;DHT22;40337;52.978;6.310;2022-07-12T02:09:14;13.20;99.90
54429;DHT22;40337;52.978;6.310;2022-07-12T02:11:41;13.10;99.90
54429;DHT22;40337;52.978;6.310;2022-07-12T02:14:07;13.20;99.90
54429;DHT22;40337;52.978;6.310;2022-07-12T02:16:33;13.20;99.90
54429;DHT22;40337;52.978;6.310;2022-07-12T02:18:58;13.10;99.90
54429;DHT22;40337;52.978;6.310;2022-07-12T02:21:24;13.10;99.90
54429;DHT22;40337;52.978;6.310;2022-07-12T02:23:50;13.20;99.90
54429;DHT22;40337;52.978;6.310;2022-07-12T02:26:16;13.20;99.90
54429;DHT22;40337;52.978;6.310;2022-07-12T02:28:42;13.10;99.90
54429;DHT22;40337;52.978;6.310;2022-07-12T02:31:07;13.10;99.90
54429;DHT22;40337;52.978;6.310;2022-07-12T02:33:33;13.10;99.90
54429;DHT22;40337;52.978;6.310;2022-07-12T02:35:59;13.10;99.90
54429;DHT22;40337;52.978;6.310;2022-07-12T02:38:24;13.20;99.90
54429;DHT22;40337;52.978;6.310;2022-07-12T02:40:50;13.20;99.90
54429;DHT22;40337;52.978;6.310;2022-07-12T02:43:19;13.20;99.90
54429;DHT22;40337;52.978;6.310;2022-07-12T02:45:44;13.30;99.90
54429;DHT22;40337;52.978;6.310;2022-07-12T02:48:10;13.20;99.90
54429;DHT22;40337;52.978;6.310;2022-07-12T02:50:40;13.20;99.90
54429;DHT22;40337;52.978;6.310;2022-07-12T02:53:06;13.20;99.90
54429;DHT22;40337;52.978;6.310;2022-07-12T02:55:32;13.10;99.90
54429;DHT22;40337;52.978;6.310;2022-07-12T02:57:57;13.10;99.90
54429;DHT22;40337;52.978;6.310;2022-07-12T03:00:23;13.10;99.90
54429;DHT22;40337;52.978;6.310;2022-07-12T03:02:49;13.00;99.90
54429;DHT22;40337;52.978;6.310;2022-07-12T03:05:14;13.00;99.90
54429;DHT22;40337;52.978;6.310;2022-07-12T03:07:40;12.90;99.90
54429;DHT22;40337;52.978;6.310;2022-07-12T03:10:06;12.90;99.90
54429;DHT22;40337;52.978;6.310;2022-07-12T03:12:32;12.90;99.90
54429;DHT22;40337;52.978;6.310;2022-07-12T03:14:57;12.80;99.90
54429;DHT22;40337;52.978;6.310;2022-07-12T03:17:23;12.80;99.90
54429;DHT22;40337;52.978;6.310;2022-07-12T03:19:48;12.80;99.90
54429;DHT22;40337;52.978;6.310;2022-07-12T03:22:14;12.80;99.90
54429;DHT22;40337;52.978;6.310;2022-07-12T03:24:40;12.80;99.90
54429;DHT22;40337;52.978;6.310;2022-07-12T03:27:05;12.80;99.90
54429;DHT22;40337;52.978;6.310;2022-07-12T03:29:31;12.80;99.90
54429;DHT22;40337;52.978;6.310;2022-07-12T03:31:57;12.90;99.90
54429;DHT22;40337;52.978;6.310;2022-07-12T03:34:23;12.90;99.90
54429;DHT22;40337;52.978;6.310;2022-07-12T03:36:48;12.80;99.90
54429;DHT22;40337;52.978;6.310;2022-07-12T03:39:14;12.80;99.90
54429;DHT22;40337;52.978;6.310;2022-07-12T03:41:39;12.80;99.90
54429;DHT22;40337;52.978;6.310;2022-07-12T03:44:05;12.90;99.90
54429;DHT22;40337;52.978;6.310;2022-07-12T03:46:32;12.80;99.90
54429;DHT22;40337;52.978;6.310;2022-07-12T03:48:58;12.80;99.90
54429;DHT22;40337;52.978;6.310;2022-07-12T03:51:24;12.90;99.90
54429;DHT22;40337;52.978;6.310;2022-07-12T03:53:50;12.90;99.90
54429;DHT22;40337;52.978;6.310;2022-07-12T03:56:16;12.90;99.90
54429;DHT22;40337;52.978;6.310;2022-07-12T03:59:01;13.00;99.90
54429;DHT22;40337;52.978;6.310;2022-07-12T04:01:27;12.90;99.90
54429;DHT22;40337;52.978;6.310;2022-07-12T04:03:55;13.00;99.90
54429;DHT22;40337;52.978;6.310;2022-07-12T04:06:21;13.00;99.90
54429;DHT22;40337;52.978;6.310;2022-07-12T04:08:46;13.00;99.90
54429;DHT22;40337;52.978;6.310;2022-07-12T04:11:12;13.00;99.90
54429;DHT22;40337;52.978;6.310;2022-07-12T04:13:38;13.00;99.90
54429;DHT22;40337;52.978;6.310;2022-07-12T04:16:04;13.10;99.90
54429;DHT22;40337;52.978;6.310;2022-07-12T04:18:29;13.10;99.90
54429;DHT22;40337;52.978;6.310;2022-07-12T04:20:55;13.10;99.90
54429;DHT22;40337;52.978;6.310;2022-07-12T04:23:20;13.10;99.90
54429;DHT22;40337;52.978;6.310;2022-07-12T04:25:46;13.10;99.90
54429;DHT22;40337;52.978;6.310;2022-07-12T04:28:11;13.10;99.90
54429;DHT22;40337;52.978;6.310;2022-07-12T04:30:37;13.10;99.90
54429;DHT22;40337;52.978;6.310;2022-07-12T04:33:02;13.10;99.90
54429;DHT22;40337;52.978;6.310;2022-07-12T04:35:28;13.10;99.90
54429;DHT22;40337;52.978;6.310;2022-07-12T04:37:54;13.10;99.90
54429;DHT22;40337;52.978;6.310;2022-07-12T04:40:20;13.10;99.90
54429;DHT22;40337;52.978;6.310;2022-07-12T04:42:45;13.10;99.90
54429;DHT22;40337;52.978;6.310;2022-07-12T04:45:11;13.20;99.90
54429;DHT22;40337;52.978;6.310;2022-07-12T04:47:36;13.20;99.90
54429;DHT22;40337;52.978;6.310;2022-07-12T04:50:06;13.20;99.90
54429;DHT22;40337;52.978;6.310;2022-07-12T04:52:34;13.30;99.90
54429;DHT22;40337;52.978;6.310;2022-07-12T04:55:00;13.30;99.90
54429;DHT22;40337;52.978;6.310;2022-07-12T04:57:25;13.40;99.90
54429;DHT22;40337;52.978;6.310;2022-07-12T04:59:51;13.40;99.90
54429;DHT22;40337;52.978;6.310;2022-07-12T05:02:16;13.50;99.90
54429;DHT22;40337;52.978;6.310;2022-07-12T05:04:42;13.60;99.90
54429;DHT22;40337;52.978;6.310;2022-07-12T05:07:07;13.70;99.90
54429;DHT22;40337;52.978;6.310;2022-07-12T05:09:33;13.80;99.90
54429;DHT22;40337;52.978;6.310;2022-07-12T05:11:58;13.90;99.90
54429;DHT22;40337;52.978;6.310;2022-07-12T05:14:24;14.10;99.90
54429;DHT22;40337;52.978;6.310;2022-07-12T05:16:49;14.20;99.90
54429;DHT22;40337;52.978;6.310;2022-07-12T05:19:15;14.40;99.90
54429;DHT22;40337;52.978;6.310;2022-07-12T05:21:42;14.40;99.90
54429;DHT22;40337;52.978;6.310;2022-07-12T05:24:08;14.60;99.90
54429;DHT22;40337;52.978;6.310;2022-07-12T05:26:34;14.70;99.90
54429;DHT22;40337;52.978;6.310;2022-07-12T05:28:59;14.80;99.90
54429;DHT22;40337;52.978;6.310;2022-07-12T05:31:25;14.90;99.90
54429;DHT22;40337;52.978;6.310;2022-07-12T05:33:52;15.00;99.90
54429;DHT22;40337;52.978;6.310;2022-07-12T05:36:18;15.10;99.90
54429;DHT22;40337;52.978;6.310;2022-07-12T05:38:43;15.20;99.90
54429;DHT22;40337;52.978;6.310;2022-07-12T05:41:09;15.30;99.90
54429;DHT22;40337;52.978;6.310;2022-07-12T05:43:34;15.40;99.90
54429;DHT22;40337;52.978;6.310;2022-07-12T05:46:00;15.50;99.90
54429;DHT22;40337;52.978;6.310;2022-07-12T05:48:26;15.60;99.90
54429;DHT22;40337;52.978;6.310;2022-07-12T05:50:51;15.60;99.90
54429;DHT22;40337;52.978;6.310;2022-07-12T05:53:17;15.70;99.90
54429;DHT22;40337;52.978;6.310;2022-07-12T05:55:53;15.80;99.90
54429;DHT22;40337;52.978;6.310;2022-07-12T05:58:19;15.90;99.90
54429;DHT22;40337;52.978;6.310;2022-07-12T06:00:46;16.00;99.90
54429;DHT22;40337;52.978;6.310;2022-07-12T06:03:15;16.10;99.90
54429;DHT22;40337;52.978;6.310;2022-07-12T06:05:41;16.20;99.90
54429;DHT22;40337;52.978;6.310;2022-07-12T06:08:07;16.30;99.90
54429;DHT22;40337;52.978;6.310;2022-07-12T06:10:33;16.40;99.90
54429;DHT22;40337;52.978;6.310;2022-07-12T06:13:00;16.40;99.90
54429;DHT22;40337;52.978;6.310;2022-07-12T06:15:25;16.50;99.90
54429;DHT22;40337;52.978;6.310;2022-07-12T06:17:52;16.60;99.90
54429;DHT22;40337;52.978;6.310;2022-07-12T06:20:18;16.60;99.90
54429;DHT22;40337;52.978;6.310;2022-07-12T06:22:44;16.70;99.90
54429;DHT22;40337;52.978;6.310;2022-07-12T06:25:09;16.80;99.90
54429;DHT22;40337;52.978;6.310;2022-07-12T06:27:35;16.90;99.90
54429;DHT22;40337;52.978;6.310;2022-07-12T06:30:01;16.90;99.90
54429;DHT22;40337;52.978;6.310;2022-07-12T06:32:26;17.00;99.90
54429;DHT22;40337;52.978;6.310;2022-07-12T06:34:52;17.10;99.90
54429;DHT22;40337;52.978;6.310;2022-07-12T06:37:17;17.20;99.90
54429;DHT22;40337;52.978;6.310;2022-07-12T06:39:43;17.40;99.90
54429;DHT22;40337;52.978;6.310;2022-07-12T06:42:09;17.50;99.90
54429;DHT22;40337;52.978;6.310;2022-07-12T06:44:35;17.80;99.90
54429;DHT22;40337;52.978;6.310;2022-07-12T06:47:01;18.10;99.90
54429;DHT22;40337;52.978;6.310;2022-07-12T06:49:27;18.40;99.90
54429;DHT22;40337;52.978;6.310;2022-07-12T06:51:53;18.60;99.90
54429;DHT22;40337;52.978;6.310;2022-07-12T06:54:18;19.00;99.90
54429;DHT22;40337;52.978;6.310;2022-07-12T06:56:44;19.40;99.90
54429;DHT22;40337;52.978;6.310;2022-07-12T06:59:10;19.90;99.90
54429;DHT22;40337;52.978;6.310;2022-07-12T07:01:38;20.30;99.90
54429;DHT22;40337;52.978;6.310;2022-07-12T07:04:04;20.70;99.90
54429;DHT22;40337;52.978;6.310;2022-07-12T07:06:29;20.90;99.90
54429;DHT22;40337;52.978;6.310;2022-07-12T07:08:55;21.00;99.90
54429;DHT22;40337;52.978;6.310;2022-07-12T07:11:21;21.00;99.90
54429;DHT22;40337;52.978;6.310;2022-07-12T07:13:46;21.10;99.90
54429;DHT22;40337;52.978;6.310;2022-07-12T07:16:12;21.30;99.90
54429;DHT22;40337;52.978;6.310;2022-07-12T07:18:39;21.40;99.90
54429;DHT22;40337;52.978;6.310;2022-07-12T07:21:05;21.50;99.90
54429;DHT22;40337;52.978;6.310;2022-07-12T07:23:32;21.40;99.90
54429;DHT22;40337;52.978;6.310;2022-07-12T07:25:57;21.30;99.90
54429;DHT22;40337;52.978;6.310;2022-07-12T07:28:23;21.50;99.90
54429;DHT22;40337;52.978;6.310;2022-07-12T07:30:49;21.60;99.90
54429;DHT22;40337;52.978;6.310;2022-07-12T07:33:26;21.90;99.90
54429;DHT22;40337;52.978;6.310;2022-07-12T07:35:52;22.20;99.90
54429;DHT22;40337;52.978;6.310;2022-07-12T07:38:19;22.40;99.90
54429;DHT22;40337;52.978;6.310;2022-07-12T07:40:45;22.50;99.90
54429;DHT22;40337;52.978;6.310;2022-07-12T07:43:11;22.60;99.90
54429;DHT22;40337;52.978;6.310;2022-07-12T07:45:36;22.70;99.90
54429;DHT22;40337;52.978;6.310;2022-07-12T07:48:02;22.80;99.90
54429;DHT22;40337;52.978;6.310;2022-07-12T07:50:29;23.00;99.90
54429;DHT22;40337;52.978;6.310;2022-07-12T07:52:58;22.90;99.90
54429;DHT22;40337;52.978;6.310;2022-07-12T07:55:23;22.90;99.90
54429;DHT22;40337;52.978;6.310;2022-07-12T07:57:49;22.90;99.90
54429;DHT22;40337;52.978;6.310;2022-07-12T08:00:15;22.90;99.90
54429;DHT22;40337;52.978;6.310;2022-07-12T08:02:41;22.90;99.90
54429;DHT22;40337;52.978;6.310;2022-07-12T08:05:07;22.90;99.90
54429;DHT22;40337;52.978;6.310;2022-07-12T08:07:33;22.90;99.90
54429;DHT22;40337;52.978;6.310;2022-07-12T08:09:58;23.00;99.90
54429;DHT22;40337;52.978;6.310;2022-07-12T08:12:24;23.00;99.90
54429;DHT22;40337;52.978;6.310;2022-07-12T08:14:49;23.00;99.90
54429;DHT22;40337;52.978;6.310;2022-07-12T08:17:15;23.00;99.90
54429;DHT22;40337;52.978;6.310;2022-07-12T08:19:41;22.90;99.90
54429;DHT22;40337;52.978;6.310;2022-07-12T08:22:06;23.00;99.90
54429;DHT22;40337;52.978;6.310;2022-07-12T08:24:32;23.10;99.90
54429;DHT22;40337;52.978;6.310;2022-07-12T08:26:57;23.00;99.90
54429;DHT22;40337;52.978;6.310;2022-07-12T08:29:23;23.00;99.90
54429;DHT22;40337;52.978;6.310;2022-07-12T08:31:48;22.90;99.90
54429;DHT22;40337;52.978;6.310;2022-07-12T08:34:14;22.90;99.90
54429;DHT22;40337;52.978;6.310;2022-07-12T08:36:39;22.90;99.90
54429;DHT22;40337;52.978;6.310;2022-07-12T08:39:05;23.00;99.90
54429;DHT22;40337;52.978;6.310;2022-07-12T08:41:30;23.20;99.90
54429;DHT22;40337;52.978;6.310;2022-07-12T08:43:56;23.40;99.90
54429;DHT22;40337;52.978;6.310;2022-07-12T08:46:22;23.60;99.90
54429;DHT22;40337;52.978;6.310;2022-07-12T08:48:48;23.80;99.90
54429;DHT22;40337;52.978;6.310;2022-07-12T08:51:22;24.00;99.90
54429;DHT22;40337;52.978;6.310;2022-07-12T08:53:53;24.40;99.90
54429;DHT22;40337;52.978;6.310;2022-07-12T08:56:34;24.70;99.90
54429;DHT22;40337;52.978;6.310;2022-07-12T08:59:20;25.00;99.90
54429;DHT22;40337;52.978;6.310;2022-07-12T09:01:53;25.20;99.90
54429;DHT22;40337;52.978;6.310;2022-07-12T09:04:26;25.20;99.90
54429;DHT22;40337;52.978;6.310;2022-07-12T09:06:55;25.30;99.90
54429;DHT22;40337;52.978;6.310;2022-07-12T09:09:27;25.40;99.90
54429;DHT22;40337;52.978;6.310;2022-07-12T09:11:54;25.60;99.90
54429;DHT22;40337;52.978;6.310;2022-07-12T09:14:20;25.70;99.90
54429;DHT22;40337;52.978;6.310;2022-07-12T09:17:00;25.90;99.90
54429;DHT22;40337;52.978;6.310;2022-07-12T09:19:25;25.80;99.90
54429;DHT22;40337;52.978;6.310;2022-07-12T09:21:53;25.70;99.90
54429;DHT22;40337;52.978;6.310;2022-07-12T09:24:20;25.60;99.90
54429;DHT22;40337;52.978;6.310;2022-07-12T09:26:47;26.00;99.90
54429;DHT22;40337;52.978;6.310;2022-07-12T09:29:13;26.20;99.90
54429;DHT22;40337;52.978;6.310;2022-07-12T09:31:44;26.50;99.90
54429;DHT22;40337;52.978;6.310;2022-07-12T09:34:29;26.50;99.90
54429;DHT22;40337;52.978;6.310;2022-07-12T09:37:13;26.30;99.90
54429;DHT22;40337;52.978;6.310;2022-07-12T09:39:40;26.20;99.90
54429;DHT22;40337;52.978;6.310;2022-07-12T09:42:08;26.20;99.90
54429;DHT22;40337;52.978;6.310;2022-07-12T09:44:38;26.10;99.90
54429;DHT22;40337;52.978;6.310;2022-07-12T09:47:08;26.10;99.90
54429;DHT22;40337;52.978;6.310;2022-07-12T09:49:38;26.10;99.90
54429;DHT22;40337;52.978;6.310;2022-07-12T09:52:05;26.30;99.90
54429;DHT22;40337;52.978;6.310;2022-07-12T09:54:31;26.40;99.90
54429;DHT22;40337;52.978;6.310;2022-07-12T09:57:02;26.40;99.90
54429;DHT22;40337;52.978;6.310;2022-07-12T09:59:29;26.50;99.90
54429;DHT22;40337;52.978;6.310;2022-07-12T10:02:00;26.60;99.90
54429;DHT22;40337;52.978;6.310;2022-07-12T10:04:29;26.70;99.90
54429;DHT22;40337;52.978;6.310;2022-07-12T10:06:57;26.90;99.90
54429;DHT22;40337;52.978;6.310;2022-07-12T10:09:24;27.20;99.90
54429;DHT22;40337;52.978;6.310;2022-07-12T10:11:49;27.40;99.90
54429;DHT22;40337;52.978;6.310;2022-07-12T10:14:16;27.50;99.90
54429;DHT22;40337;52.978;6.310;2022-07-12T10:16:44;27.50;99.90
54429;DHT22;40337;52.978;6.310;2022-07-12T10:19:32;27.60;99.30
54429;DHT22;40337;52.978;6.310;2022-07-12T10:22:01;27.50;99.30
54429;DHT22;40337;52.978;6.310;2022-07-12T10:26:57;27.50;99.40
54429;DHT22;40337;52.978;6.310;2022-07-12T10:29:22;27.60;99.90
54429;DHT22;40337;52.978;6.310;2022-07-12T10:31:49;27.70;98.90
54429;DHT22;40337;52.978;6.310;2022-07-12T10:34:24;27.50;98.00
54429;DHT22;40337;52.978;6.310;2022-07-12T10:39:22;27.80;97.40
54429;DHT22;40337;52.978;6.310;2022-07-12T10:44:37;27.70;97.30
54429;DHT22;40337;52.978;6.310;2022-07-12T10:47:04;27.50;96.70
54429;DHT22;40337;52.978;6.310;2022-07-12T10:49:32;27.60;96.10
54429;DHT22;40337;52.978;6.310;2022-07-12T11:00:04;27.70;95.80
54429;DHT22;40337;52.978;6.310;2022-07-12T11:02:30;28.00;95.80
54429;DHT22;40337;52.978;6.310;2022-07-12T11:04:57;28.30;95.80
54429;DHT22;40337;52.978;6.310;2022-07-12T11:07:23;28.50;94.30
54429;DHT22;40337;52.978;6.310;2022-07-12T11:09:53;28.40;95.00
54429;DHT22;40337;52.978;6.310;2022-07-12T11:12:19;28.70;94.90
54429;DHT22;40337;52.978;6.310;2022-07-12T11:14:45;28.80;95.40
54429;DHT22;40337;52.978;6.310;2022-07-12T11:17:11;28.80;95.90
54429;DHT22;40337;52.978;6.310;2022-07-12T11:19:37;28.80;94.80
54429;DHT22;40337;52.978;6.310;2022-07-12T11:22:03;28.50;93.80
54429;DHT22;40337;52.978;6.310;2022-07-12T11:24:31;28.40;94.60
54429;DHT22;40337;52.978;6.310;2022-07-12T11:26:57;28.40;94.90
54429;DHT22;40337;52.978;6.310;2022-07-12T11:29:25;28.40;95.30
54429;DHT22;40337;52.978;6.310;2022-07-12T11:31:59;28.30;94.90
54429;DHT22;40337;52.978;6.310;2022-07-12T11:34:26;28.10;95.70
54429;DHT22;40337;52.978;6.310;2022-07-12T11:36:56;28.10;95.90
54429;DHT22;40337;52.978;6.310;2022-07-12T11:39:36;28.00;95.70
54429;DHT22;40337;52.978;6.310;2022-07-12T11:42:04;28.10;95.30
54429;DHT22;40337;52.978;6.310;2022-07-12T11:44:47;28.30;95.60
54429;DHT22;40337;52.978;6.310;2022-07-12T11:47:17;28.50;94.90
54429;DHT22;40337;52.978;6.310;2022-07-12T11:49:50;28.60;94.70
54429;DHT22;40337;52.978;6.310;2022-07-12T11:52:17;28.60;94.10
54429;DHT22;40337;52.978;6.310;2022-07-12T11:54:47;28.60;93.60
54429;DHT22;40337;52.978;6.310;2022-07-12T11:57:13;28.60;93.70
54429;DHT22;40337;52.978;6.310;2022-07-12T11:59:40;28.70;94.20
54429;DHT22;40337;52.978;6.310;2022-07-12T12:02:13;28.70;94.90
54429;DHT22;40337;52.978;6.310;2022-07-12T12:04:51;28.80;93.70
54429;DHT22;40337;52.978;6.310;2022-07-12T12:07:18;28.70;92.80
54429;DHT22;40337;52.978;6.310;2022-07-12T12:10:01;28.80;93.60
54429;DHT22;40337;52.978;6.310;2022-07-12T12:12:50;29.00;93.70
54429;DHT22;40337;52.978;6.310;2022-07-12T12:15:23;29.00;93.90
54429;DHT22;40337;52.978;6.310;2022-07-12T12:18:00;29.10;93.00
54429;DHT22;40337;52.978;6.310;2022-07-12T12:20:29;29.40;93.50
54429;DHT22;40337;52.978;6.310;2022-07-12T12:22:57;29.40;91.30
54429;DHT22;40337;52.978;6.310;2022-07-12T12:25:23;29.50;91.70
54429;DHT22;40337;52.978;6.310;2022-07-12T12:27:55;29.60;91.30
54429;DHT22;40337;52.978;6.310;2022-07-12T12:30:21;29.70;90.90
54429;DHT22;40337;52.978;6.310;2022-07-12T12:32:57;29.70;89.60
54429;DHT22;40337;52.978;6.310;2022-07-12T12:37:57;29.60;86.00
54429;DHT22;40337;52.978;6.310;2022-07-12T12:40:31;29.50;86.50
54429;DHT22;40337;52.978;6.310;2022-07-12T12:43:06;29.80;88.10
54429;DHT22;40337;52.978;6.310;2022-07-12T12:45:33;29.90;90.00
54429;DHT22;40337;52.978;6.310;2022-07-12T12:48:02;29.90;87.10
54429;DHT22;40337;52.978;6.310;2022-07-12T12:50:38;30.20;84.80
54429;DHT22;40337;52.978;6.310;2022-07-12T12:53:11;30.00;83.90
54429;DHT22;40337;52.978;6.310;2022-07-12T12:55:37;30.00;84.00
54429;DHT22;40337;52.978;6.310;2022-07-12T12:58:04;30.00;85.10
54429;DHT22;40337;52.978;6.310;2022-07-12T13:00:30;29.90;85.40
54429;DHT22;40337;52.978;6.310;2022-07-12T13:02:59;30.10;87.60
54429;DHT22;40337;52.978;6.310;2022-07-12T13:05:27;30.20;86.40
54429;DHT22;40337;52.978;6.310;2022-07-12T13:07:53;30.00;84.80
54429;DHT22;40337;52.978;6.310;2022-07-12T13:10:18;29.70;84.20
54429;DHT22;40337;52.978;6.310;2022-07-12T13:12:44;29.60;84.90
54429;DHT22;40337;52.978;6.310;2022-07-12T13:15:10;29.50;84.60
54429;DHT22;40337;52.978;6.310;2022-07-12T13:17:36;29.50;85.30
54429;DHT22;40337;52.978;6.310;2022-07-12T13:20:03;29.50;83.20
54429;DHT22;40337;52.978;6.310;2022-07-12T13:22:29;29.30;80.80
54429;DHT22;40337;52.978;6.310;2022-07-12T13:24:55;29.20;79.10
54429;DHT22;40337;52.978;6.310;2022-07-12T13:27:21;29.20;78.60
54429;DHT22;40337;52.978;6.310;2022-07-12T13:29:46;29.00;79.30
54429;DHT22;40337;52.978;6.310;2022-07-12T13:32:12;29.10;79.80
54429;DHT22;40337;52.978;6.310;2022-07-12T13:34:37;29.10;80.30
54429;DHT22;40337;52.978;6.310;2022-07-12T13:37:04;29.00;80.80
54429;DHT22;40337;52.978;6.310;2022-07-12T13:39:30;28.70;81.40
54429;DHT22;40337;52.978;6.310;2022-07-12T13:42:14;28.70;83.30
54429;DHT22;40337;52.978;6.310;2022-07-12T13:44:41;28.40;82.70
54429;DHT22;40337;52.978;6.310;2022-07-12T13:47:07;28.30;82.70
54429;DHT22;40337;52.978;6.310;2022-07-12T13:49:32;28.30;84.00
54429;DHT22;40337;52.978;6.310;2022-07-12T13:51:58;28.30;84.60
54429;DHT22;40337;52.978;6.310;2022-07-12T13:54:24;28.20;85.80
54429;DHT22;40337;52.978;6.310;2022-07-12T13:56:49;28.10;86.90
54429;DHT22;40337;52.978;6.310;2022-07-12T13:59:15;28.10;86.90
54429;DHT22;40337;52.978;6.310;2022-07-12T14:01:40;28.00;87.10
54429;DHT22;40337;52.978;6.310;2022-07-12T14:04:06;28.00;87.00
54429;DHT22;40337;52.978;6.310;2022-07-12T14:06:31;27.80;86.00
54429;DHT22;40337;52.978;6.310;2022-07-12T14:08:57;27.80;86.10
54429;DHT22;40337;52.978;6.310;2022-07-12T14:11:23;27.70;85.70
54429;DHT22;40337;52.978;6.310;2022-07-12T14:13:48;27.70;86.10
54429;DHT22;40337;52.978;6.310;2022-07-12T14:16:14;27.70;85.30
54429;DHT22;40337;52.978;6.310;2022-07-12T14:18:40;27.60;83.30
54429;DHT22;40337;52.978;6.310;2022-07-12T14:21:06;27.40;84.00
54429;DHT22;40337;52.978;6.310;2022-07-12T14:23:32;27.30;83.90
54429;DHT22;40337;52.978;6.310;2022-07-12T14:25:58;27.20;83.60
54429;DHT22;40337;52.978;6.310;2022-07-12T14:28:23;27.10;83.80
54429;DHT22;40337;52.978;6.310;2022-07-12T14:30:49;27.00;83.90
54429;DHT22;40337;52.978;6.310;2022-07-12T14:33:14;27.00;85.00
54429;DHT22;40337;52.978;6.310;2022-07-12T14:35:40;27.00;86.10
54429;DHT22;40337;52.978;6.310;2022-07-12T14:38:05;27.00;87.30
54429;DHT22;40337;52.978;6.310;2022-07-12T14:40:31;27.00;87.60
54429;DHT22;40337;52.978;6.310;2022-07-12T14:42:57;27.00;87.10
54429;DHT22;40337;52.978;6.310;2022-07-12T14:45:23;27.10;86.80
54429;DHT22;40337;52.978;6.310;2022-07-12T14:47:49;27.20;88.90
54429;DHT22;40337;52.978;6.310;2022-07-12T14:50:15;27.20;89.70
54429;DHT22;40337;52.978;6.310;2022-07-12T14:52:40;27.30;90.70
54429;DHT22;40337;52.978;6.310;2022-07-12T14:55:06;27.30;90.80
54429;DHT22;40337;52.978;6.310;2022-07-12T14:57:32;27.30;91.50
54429;DHT22;40337;52.978;6.310;2022-07-12T14:59:57;27.30;92.00
54429;DHT22;40337;52.978;6.310;2022-07-12T15:02:23;27.20;92.40
54429;DHT22;40337;52.978;6.310;2022-07-12T15:04:49;27.20;91.80
54429;DHT22;40337;52.978;6.310;2022-07-12T15:07:16;27.10;92.00
54429;DHT22;40337;52.978;6.310;2022-07-12T15:09:41;27.00;91.80
54429;DHT22;40337;52.978;6.310;2022-07-12T15:12:07;27.00;91.60
54429;DHT22;40337;52.978;6.310;2022-07-12T15:14:33;26.90;90.90
54429;DHT22;40337;52.978;6.310;2022-07-12T15:16:59;26.80;91.60
54429;DHT22;40337;52.978;6.310;2022-07-12T15:19:24;26.80;91.80
54429;DHT22;40337;52.978;6.310;2022-07-12T15:21:50;26.80;92.20
54429;DHT22;40337;52.978;6.310;2022-07-12T15:24:15;26.70;91.00
54429;DHT22;40337;52.978;6.310;2022-07-12T15:26:41;26.70;90.60
54429;DHT22;40337;52.978;6.310;2022-07-12T15:29:07;26.70;90.70
54429;DHT22;40337;52.978;6.310;2022-07-12T15:31:33;26.70;90.60
54429;DHT22;40337;52.978;6.310;2022-07-12T15:34:00;26.60;90.20
54429;DHT22;40337;52.978;6.310;2022-07-12T15:36:25;26.60;90.20
54429;DHT22;40337;52.978;6.310;2022-07-12T15:38:51;26.50;89.10
54429;DHT22;40337;52.978;6.310;2022-07-12T15:41:17;26.50;89.80
54429;DHT22;40337;52.978;6.310;2022-07-12T15:43:44;26.40;88.20
54429;DHT22;40337;52.978;6.310;2022-07-12T15:46:10;26.40;86.10
54429;DHT22;40337;52.978;6.310;2022-07-12T15:48:37;26.30;85.60